Quantum Of The Seas — C6BH8 — position and weather

sailwx.info

Track history (hours):
 
Tides and Currents Weather Stations Pressure Air Temp Water Temp Dewpoint Dewpoint Depression Visibility Wind Speed Wind Dir Waves Ship Positions

Quantum Of The Seas

Last reported at 2017-Mar-22 13:33 UTC. Time now 2017-Mar-24 19:52 UTC.
Position N 31°11' E 122°11'.

Length 348 m; draft 9 m.

Type: Passenger vessel. MMSI: 311000267.

Date/timePositionNaut miles runAvg speedWind from/ knotsBaromVisibWave heightAir tempDewpointWater temp
2017-Mar-22 13:33N 31°11' E 122°11'1212.4
2017-Mar-22 12:34N 31°15' E 121°58'1313.0
2017-Mar-22 11:33N 31°19' E 121°43'10 9.6
2017-Mar-22 10:33N 31°24' E 121°33'3 2.7
2017-Mar-22 09:31N 31°25' E 121°30'0 0.0
2017-Mar-22 08:22N 31°25' E 121°30'0 0.0
2017-Mar-22 07:31N 31°25' E 121°30'0 0.0
2017-Mar-22 06:31N 31°25' E 121°30'0 0.0
2017-Mar-22 05:31N 31°25' E 121°30'0 0.0
2017-Mar-22 04:28N 31°25' E 121°30'0 0.0
2017-Mar-22 03:31N 31°25' E 121°30'0 0.0
2017-Mar-22 02:28N 31°25' E 121°30'0 0.0
2017-Mar-22 01:28N 31°25' E 121°30'0 0.0
2017-Mar-22 00:28N 31°25' E 121°30'0 0.0
2017-Mar-21 23:28N 31°25' E 121°30'0 0.0
2017-Mar-21 22:33N 31°25' E 121°30'7 6.8
2017-Mar-21 21:33N 31°22' E 121°38'1010.3
2017-Mar-21 20:33N 31°17' E 121°48'10 9.8
2017-Mar-21 19:33N 31°15' E 121°59'9 8.6
2017-Mar-21 18:33N 31°12' E 122°09'8 8.2
2017-Mar-21 17:33N 31°07' E 122°17'7 6.4
2017-Mar-21 16:32N 31°06' E 122°24'11 9.8
2017-Mar-21 15:26N 31°15' E 122°32'  
2017-Mar-17 15:03N 31°08' E 123°01'816.7
2017-Mar-17 14:33N 31°06' E 122°51'2713.2
2017-Mar-17 12:30N 31°06' E 122°20'1312.1
2017-Mar-17 11:24N 31°13' E 122°07'1213.9
2017-Mar-17 10:33N 31°16' E 121°53'1414.1
2017-Mar-17 09:33N 31°22' E 121°38'7 7.5
2017-Mar-17 08:33N 31°25' E 121°30'0 0.0
2017-Mar-17 07:27N 31°25' E 121°30'0 0.0
2017-Mar-17 06:33N 31°25' E 121°30'0 0.0
2017-Mar-17 05:30N 31°25' E 121°30'0 0.0
2017-Mar-17 04:33N 31°25' E 121°30'0 0.0
2017-Mar-17 03:33N 31°25' E 121°30'0 0.0
2017-Mar-17 02:33N 31°25' E 121°30'0 0.0
2017-Mar-17 01:30N 31°25' E 121°30'0 0.0
2017-Mar-17 00:33N 31°25' E 121°30'0 0.0
2017-Mar-16 23:33N 31°25' E 121°30'0 0.0
2017-Mar-16 22:33N 31°25' E 121°30'0 0.0
2017-Mar-16 21:33N 31°25' E 121°30'0 0.0
2017-Mar-16 20:27N 31°25' E 121°30'0 0.0
2017-Mar-16 19:33N 31°25' E 121°30'0 0.4
2017-Mar-16 18:34N 31°25' E 121°30'1010.3
2017-Mar-16 17:33N 31°20' E 121°41'1111.2
2017-Mar-16 16:34N 31°16' E 121°53'1010.4
2017-Mar-16 15:33N 31°14' E 122°05'10 9.6
2017-Mar-16 14:33N 31°09' E 122°14'  
2017-Mar-13 11:05N 31°10' E 122°12'611.3
2017-Mar-13 10:33N 31°14' E 122°06'1514.6
2017-Mar-13 09:34N 31°17' E 121°49'1313.0
2017-Mar-13 08:33N 31°23' E 121°36'5 5.0
2017-Mar-13 07:33N 31°25' E 121°30'0 0.0
2017-Mar-13 06:33N 31°25' E 121°30'0 0.0
2017-Mar-13 05:33N 31°25' E 121°30'0 0.0
2017-Mar-13 04:27N 31°25' E 121°30'0 0.0
2017-Mar-13 03:33N 31°25' E 121°30'0 0.0
2017-Mar-13 02:30N 31°25' E 121°30'0 0.0
2017-Mar-13 01:33N 31°25' E 121°30'0 0.0
2017-Mar-13 00:33N 31°25' E 121°30'0 0.0
2017-Mar-12 23:33N 31°25' E 121°30'0 0.0
2017-Mar-12 22:30N 31°25' E 121°30'0 0.0
2017-Mar-12 21:30N 31°25' E 121°30'0 0.0
2017-Mar-12 20:30N 31°25' E 121°30'0 0.0
2017-Mar-12 19:30N 31°25' E 121°30'0 0.0
2017-Mar-12 18:33N 31°25' E 121°30'7 6.9
2017-Mar-12 17:33N 31°22' E 121°38'1010.4
2017-Mar-12 16:33N 31°17' E 121°48'1111.5
2017-Mar-12 15:34N 31°15' E 122°02'1312.7
2017-Mar-12 14:33N 31°08' E 122°15'  
Track history (hours):
 
Tides and Currents Weather Stations Pressure Air Temp Water Temp Dewpoint Dewpoint Depression Visibility Wind Speed Wind Dir Waves Ship Positions

Quantum Of The Seas

Last reported at 2017-Mar-22 13:33 UTC. Time now 2017-Mar-24 19:52 UTC.
Position N 31°11' E 122°11'.

Length 348 m; draft 9 m.

Type: Passenger vessel. MMSI: 311000267.

Date/timePositionNaut miles runAvg speedWind from/ knotsBaromVisibWave heightAir tempDewpointWater temp
2017-Mar-22 13:33N 31°11' E 122°11'1212.4
2017-Mar-22 12:34N 31°15' E 121°58'1313.0
2017-Mar-22 11:33N 31°19' E 121°43'10 9.6
2017-Mar-22 10:33N 31°24' E 121°33'3 2.7
2017-Mar-22 09:31N 31°25' E 121°30'0 0.0
2017-Mar-22 08:22N 31°25' E 121°30'0 0.0
2017-Mar-22 07:31N 31°25' E 121°30'0 0.0
2017-Mar-22 06:31N 31°25' E 121°30'0 0.0
2017-Mar-22 05:31N 31°25' E 121°30'0 0.0
2017-Mar-22 04:28N 31°25' E 121°30'0 0.0
2017-Mar-22 03:31N 31°25' E 121°30'0 0.0
2017-Mar-22 02:28N 31°25' E 121°30'0 0.0
2017-Mar-22 01:28N 31°25' E 121°30'0 0.0
2017-Mar-22 00:28N 31°25' E 121°30'0 0.0
2017-Mar-21 23:28N 31°25' E 121°30'0 0.0
2017-Mar-21 22:33N 31°25' E 121°30'7 6.8
2017-Mar-21 21:33N 31°22' E 121°38'1010.3
2017-Mar-21 20:33N 31°17' E 121°48'10 9.8
2017-Mar-21 19:33N 31°15' E 121°59'9 8.6
2017-Mar-21 18:33N 31°12' E 122°09'8 8.2
2017-Mar-21 17:33N 31°07' E 122°17'7 6.4
2017-Mar-21 16:32N 31°06' E 122°24'11 9.8
2017-Mar-21 15:26N 31°15' E 122°32'  
2017-Mar-17 15:03N 31°08' E 123°01'816.7
2017-Mar-17 14:33N 31°06' E 122°51'2713.2
2017-Mar-17 12:30N 31°06' E 122°20'1312.1
2017-Mar-17 11:24N 31°13' E 122°07'1213.9
2017-Mar-17 10:33N 31°16' E 121°53'1414.1
2017-Mar-17 09:33N 31°22' E 121°38'7 7.5
2017-Mar-17 08:33N 31°25' E 121°30'0 0.0
2017-Mar-17 07:27N 31°25' E 121°30'0 0.0
2017-Mar-17 06:33N 31°25' E 121°30'0 0.0
2017-Mar-17 05:30N 31°25' E 121°30'0 0.0
2017-Mar-17 04:33N 31°25' E 121°30'0 0.0
2017-Mar-17 03:33N 31°25' E 121°30'0 0.0
2017-Mar-17 02:33N 31°25' E 121°30'0 0.0
2017-Mar-17 01:30N 31°25' E 121°30'0 0.0
2017-Mar-17 00:33N 31°25' E 121°30'0 0.0
2017-Mar-16 23:33N 31°25' E 121°30'0 0.0
2017-Mar-16 22:33N 31°25' E 121°30'0 0.0
2017-Mar-16 21:33N 31°25' E 121°30'0 0.0
2017-Mar-16 20:27N 31°25' E 121°30'0 0.0
2017-Mar-16 19:33N 31°25' E 121°30'0 0.4
2017-Mar-16 18:34N 31°25' E 121°30'1010.3
2017-Mar-16 17:33N 31°20' E 121°41'1111.2
2017-Mar-16 16:34N 31°16' E 121°53'1010.4
2017-Mar-16 15:33N 31°14' E 122°05'10 9.6
2017-Mar-16 14:33N 31°09' E 122°14'  
2017-Mar-13 11:05N 31°10' E 122°12'611.3
2017-Mar-13 10:33N 31°14' E 122°06'1514.6
2017-Mar-13 09:34N 31°17' E 121°49'1313.0
2017-Mar-13 08:33N 31°23' E 121°36'5 5.0
2017-Mar-13 07:33N 31°25' E 121°30'0 0.0
2017-Mar-13 06:33N 31°25' E 121°30'0 0.0
2017-Mar-13 05:33N 31°25' E 121°30'0 0.0
2017-Mar-13 04:27N 31°25' E 121°30'0 0.0
2017-Mar-13 03:33N 31°25' E 121°30'0 0.0
2017-Mar-13 02:30N 31°25' E 121°30'0 0.0
2017-Mar-13 01:33N 31°25' E 121°30'0 0.0
2017-Mar-13 00:33N 31°25' E 121°30'0 0.0
2017-Mar-12 23:33N 31°25' E 121°30'0 0.0
2017-Mar-12 22:30N 31°25' E 121°30'0 0.0
2017-Mar-12 21:30N 31°25' E 121°30'0 0.0
2017-Mar-12 20:30N 31°25' E 121°30'0 0.0
2017-Mar-12 19:30N 31°25' E 121°30'0 0.0
2017-Mar-12 18:33N 31°25' E 121°30'7 6.9
2017-Mar-12 17:33N 31°22' E 121°38'1010.4
2017-Mar-12 16:33N 31°17' E 121°48'1111.5
2017-Mar-12 15:34N 31°15' E 122°02'1312.7
2017-Mar-12 14:33N 31°08' E 122°15'  

Dump ship's entire track history